Rainbow City, AL (35906)

10:21 AM CDT on August 30, 2015 (GMT -0500)
Southside | | Change Station
CLOSE
Current Station
Personal Weather Station
Location: Gadsden, AL
Elevation: 522 ft
Nearby Weather Stations

Elev 522 ft 33.90 °N, 86.06 °W | Updated 36 seconds ago

Overcast
Overcast
71.6 °F
Feels Like 71.6 °F
N
5.0
Wind Variable Wind from East
Gusts 6.0 mph

Today
High -- | Low -- °F
--% Chance of Precip.
Yesterday
High -- | Low -- °F
Precip. -- in
6:16 AM 7:13 PM
Full, 99% visible
Pressure 30.13 in
Visibility 10.0 miles
Clouds Mostly Cloudy 3900 ft
Mostly Cloudy 4600 ft
Overcast 6000 ft
Dew Point 70 °F
Humidity 93%
Rainfall 0.60 in
Snow Depth Not available.
UV 2 out of 12
Pollen 8.10 out of 12
Air Quality Not available.
Flu Activity Not available.
METAR KGAD 301515Z 06011KT 10SM BKN039 BKN046 OVC060 22/17 A3013 RMK AO1
Pressure 30.13 in
Visibility 10.0 miles
Clouds Mostly Cloudy 3900 ft
Mostly Cloudy 4600 ft
Overcast 6000 ft
Dew Point 70 °F
Humidity 93%
Rainfall 0.60 in
Snow Depth Not available.
UV 2 out of 12
Pollen 8.10 out of 12
Air Quality Not available.
Flu Activity Not available.
METAR KGAD 301515Z 06011KT 10SM BKN039 BKN046 OVC060 22/17 A3013 RMK AO1

10-Day Weather Forecast

×

Almanac

Astronomy

Aug. 30, 2015 Rise Set
Actual Time
Civil Twilight
Nautical Twilight
Astronomical Twilight
Moon
Length of Visible Light
Length of Day
Tomorrow will be .
, % of the Moon is Illuminated

Today's Extremes

State Highs State Lows

Community

WunderPhotos

Upload Photos

1,850,995 photos uploaded!

WunderBlogs® & News

Nearby

Air Quality

  Air Quality AQ Index Pollutant
Not available.

Snow Depth

Station Depth Elevation

Earthquake Activity

City Distance Mag. Time & Date
Minimum magnitude displayed is 2.5.

Coastal Water Temperatures

Place Temperature

Stations

Nearby Weather Stations

Station Location Temp. Windchill Dew Point Humidity Wind Precip. Elev Updated Type